Time,TemperatureF,DewpointF,PressureIn,WindDirection,WindDirectionDegrees,WindSpeedMPH,WindSpeedGustMPH,Humidity,HourlyPrecipIn,Conditions,Clouds,dailyrainin,SoftwareType,DateUTC
2013-01-29 00:00:00,32.7,32.5,29.60,WNW,282,0.0,2.0,99,0.00,,,0.00,WeatherCatV1.10B1784,2013-01-29 06:00:00,
2013-01-29 00:05:00,32.7,32.5,29.62,WNW,282,1.0,4.0,99,0.00,,,0.00,WeatherCatV1.10B1784,2013-01-29 06:05:00,
2013-01-29 00:10:00,32.8,32.5,29.63,WNW,282,0.0,3.0,99,0.00,,,0.00,WeatherCatV1.10B1784,2013-01-29 06:10:00,
2013-01-29 00:15:00,32.8,32.5,29.64,WNW,282,1.0,3.0,99,0.00,,,0.00,WeatherCatV1.10B1784,2013-01-29 06:15:00,
2013-01-29 00:20:00,32.9,32.7,29.64,WNW,282,2.0,2.0,99,0.00,,,0.00,WeatherCatV1.10B1784,2013-01-29 06:20:00,
2013-01-29 00:25:00,32.9,32.7,29.63,WNW,282,2.0,2.0,99,0.00,,,0.00,WeatherCatV1.10B1784,2013-01-29 06:25:00,
2013-01-29 00:30:00,32.9,32.7,29.63,WNW,282,0.0,0.0,99,0.00,,,0.00,WeatherCatV1.10B1784,2013-01-29 06:30:00,
2013-01-29 00:35:00,32.9,32.7,29.63,WNW,282,0.0,0.0,99,0.00,,,0.00,WeatherCatV1.10B1784,2013-01-29 06:35:00,
2013-01-29 00:40:00,32.9,32.7,29.63,WNW,282,0.0,1.0,99,0.00,,,0.00,WeatherCatV1.10B1784,2013-01-29 06:40:00,
2013-01-29 00:45:00,32.9,32.7,29.63,WNW,282,0.0,0.0,99,0.00,,,0.00,WeatherCatV1.10B1784,2013-01-29 06:45:00,
2013-01-29 00:50:00,32.9,32.7,29.63,WNW,282,0.0,1.0,99,0.00,,,0.00,WeatherCatV1.10B1784,2013-01-29 06:50:00,
2013-01-29 00:55:00,32.9,32.7,29.62,WNW,282,2.0,2.0,99,0.00,,,0.00,WeatherCatV1.10B1784,2013-01-29 06:55:00,
2013-01-29 01:00:00,32.9,32.7,29.63,WNW,286,0.0,2.0,99,0.00,,,0.00,WeatherCatV1.10B1784,2013-01-29 07:00:00,
2013-01-29 01:05:00,33.0,32.8,29.63,West,274,1.0,6.0,99,0.00,,,0.00,WeatherCatV1.10B1784,2013-01-29 07:05:00,
2013-01-29 01:10:00,33.0,32.8,29.62,West,274,0.0,1.0,99,0.00,,,0.00,WeatherCatV1.10B1784,2013-01-29 07:10:00,
2013-01-29 01:15:00,33.0,32.8,29.62,West,274,0.0,0.0,99,0.00,,,0.00,WeatherCatV1.10B1784,2013-01-29 07:15:00,
2013-01-29 01:20:00,33.0,32.8,29.61,West,274,0.0,1.0,99,0.00,,,0.00,WeatherCatV1.10B1784,2013-01-29 07:20:00,
2013-01-29 01:25:00,33.0,32.8,29.61,West,281,0.0,1.0,99,0.00,,,0.00,WeatherCatV1.10B1784,2013-01-29 07:25:00,
2013-01-29 01:30:00,33.0,32.8,29.61,WNW,289,2.0,3.0,99,0.00,,,0.00,WeatherCatV1.10B1784,2013-01-29 07:30:00,
2013-01-29 01:35:00,33.0,32.8,29.61,WNW,289,0.0,4.0,99,0.00,,,0.00,WeatherCatV1.10B1784,2013-01-29 07:35:00,
2013-01-29 01:40:00,33.0,32.8,29.61,NW,305,7.0,7.0,99,0.00,,,0.00,WeatherCatV1.10B1784,2013-01-29 07:40:00,
2013-01-29 01:45:00,32.7,32.5,29.62,NW,309,4.0,6.0,99,0.00,,,0.00,WeatherCatV1.10B1784,2013-01-29 07:45:00,
2013-01-29 01:50:00,32.5,32.3,29.62,West,281,5.0,7.0,99,0.00,,,0.00,WeatherCatV1.10B1784,2013-01-29 07:50:00,
2013-01-29 01:55:00,32.3,32.1,29.62,NW,325,5.0,6.0,99,0.00,,,0.00,WeatherCatV1.10B1784,2013-01-29 07:55:00,
2013-01-29 02:00:00,32.1,31.9,29.63,NW,317,4.0,7.0,99,0.00,,,0.00,WeatherCatV1.10B1784,2013-01-29 08:00:00,
2013-01-29 02:05:00,32.1,31.9,29.62,North,5,1.0,4.0,99,0.00,,,0.00,WeatherCatV1.10B1784,2013-01-29 08:05:00,
2013-01-29 02:10:00,32.1,31.9,29.62,NW,314,3.0,4.0,99,0.00,,,0.00,WeatherCatV1.10B1784,2013-01-29 08:10:00,
2013-01-29 02:15:00,32.1,31.9,29.63,WNW,303,2.0,4.0,99,0.00,,,0.00,WeatherCatV1.10B1784,2013-01-29 08:15:00,
2013-01-29 02:20:00,32.0,31.8,29.63,NW,326,5.0,5.0,99,0.00,,,0.00,WeatherCatV1.10B1784,2013-01-29 08:20:00,
2013-01-29 02:25:00,32.0,31.8,29.62,NW,318,4.0,4.0,99,0.00,,,0.00,WeatherCatV1.10B1784,2013-01-29 08:25:00,
2013-01-29 02:30:00,31.9,31.7,29.62,NW,312,2.0,5.0,99,0.00,,,0.00,WeatherCatV1.10B1784,2013-01-29 08:30:00,
2013-01-29 02:35:00,31.9,31.7,29.63,NNW,342,3.0,4.0,99,0.00,,,0.00,WeatherCatV1.10B1784,2013-01-29 08:35:00,
2013-01-29 02:40:00,31.9,31.7,29.63,NW,320,5.0,5.0,99,0.00,,,0.00,WeatherCatV1.10B1784,2013-01-29 08:40:00,
2013-01-29 02:45:00,31.9,31.7,29.63,NW,320,3.0,3.0,99,0.00,,,0.00,WeatherCatV1.10B1784,2013-01-29 08:45:00,
2013-01-29 02:50:00,31.9,31.7,29.63,NW,320,3.0,4.0,99,0.00,,,0.00,WeatherCatV1.10B1784,2013-01-29 08:50:00,
2013-01-29 02:55:00,31.9,31.4,29.63,NW,320,1.0,5.0,98,0.00,,,0.00,WeatherCatV1.10B1784,2013-01-29 08:55:00,
2013-01-29 03:00:00,31.9,31.4,29.64,NW,307,0.0,4.0,98,0.00,,,0.00,WeatherCatV1.10B1784,2013-01-29 09:00:00,
2013-01-29 03:05:00,31.9,31.4,29.64,WNW,290,0.0,6.0,98,0.00,,,0.00,WeatherCatV1.10B1784,2013-01-29 09:05:00,
2013-01-29 03:10:00,31.8,31.3,29.63,WNW,292,4.0,5.0,98,0.00,,,0.00,WeatherCatV1.10B1784,2013-01-29 09:10:00,
2013-01-29 03:15:00,31.8,31.3,29.63,WNW,292,4.0,6.0,98,0.00,,,0.00,WeatherCatV1.10B1784,2013-01-29 09:15:00,
2013-01-29 03:20:00,31.8,31.3,29.63,WNW,292,2.0,5.0,98,0.00,,,0.00,WeatherCatV1.10B1784,2013-01-29 09:20:00,
2013-01-29 03:25:00,31.8,31.0,29.63,WNW,292,1.0,8.0,97,0.00,,,0.00,WeatherCatV1.10B1784,2013-01-29 09:25:00,
2013-01-29 03:30:00,31.7,30.9,29.64,WNW,292,4.0,6.0,97,0.00,,,0.00,WeatherCatV1.10B1784,2013-01-29 09:30:00,
2013-01-29 03:35:00,31.7,30.9,29.63,WNW,292,5.0,6.0,97,0.00,,,0.00,WeatherCatV1.10B1784,2013-01-29 09:35:00,
2013-01-29 03:40:00,31.7,30.9,29.64,WNW,292,2.0,5.0,97,0.00,,,0.00,WeatherCatV1.10B1784,2013-01-29 09:40:00,
2013-01-29 03:45:00,31.7,30.9,29.63,WNW,292,0.0,3.0,97,0.00,,,0.00,WeatherCatV1.10B1784,2013-01-29 09:45:00,
2013-01-29 03:50:00,31.7,30.9,29.62,WNW,292,1.0,2.0,97,0.00,,,0.00,WeatherCatV1.10B1784,2013-01-29 09:50:00,
2013-01-29 03:55:00,31.7,30.9,29.62,WNW,292,1.0,6.0,97,0.00,,,0.00,WeatherCatV1.10B1784,2013-01-29 09:55:00,
2013-01-29 04:00:00,31.7,30.7,29.62,WNW,292,3.0,5.0,96,0.00,,,0.00,WeatherCatV1.10B1784,2013-01-29 10:00:00,
2013-01-29 04:05:00,31.7,30.7,29.63,WNW,292,0.0,5.0,96,0.00,,,0.00,WeatherCatV1.10B1784,2013-01-29 10:05:00,
2013-01-29 04:10:00,31.7,30.7,29.63,WNW,292,2.0,3.0,96,0.00,,,0.00,WeatherCatV1.10B1784,2013-01-29 10:10:00,
2013-01-29 04:15:00,31.6,30.6,29.61,WNW,292,1.0,7.0,96,0.00,,,0.00,WeatherCatV1.10B1784,2013-01-29 10:15:00,
2013-01-29 04:20:00,31.6,30.6,29.62,WNW,292,1.0,3.0,96,0.00,,,0.00,WeatherCatV1.10B1784,2013-01-29 10:20:00,
2013-01-29 04:25:00,31.6,30.6,29.61,WNW,292,2.0,5.0,96,0.00,,,0.00,WeatherCatV1.10B1784,2013-01-29 10:25:00,
2013-01-29 04:30:00,31.6,30.3,29.63,WNW,292,2.0,8.0,95,0.00,,,0.00,WeatherCatV1.10B1784,2013-01-29 10:30:00,
2013-01-29 04:35:00,31.5,30.0,29.63,WNW,292,1.0,3.0,94,0.00,,,0.00,WeatherCatV1.10B1784,2013-01-29 10:35:00,
2013-01-29 04:40:00,31.5,30.0,29.63,WNW,292,2.0,5.0,94,0.00,,,0.00,WeatherCatV1.10B1784,2013-01-29 10:40:00,
2013-01-29 04:45:00,31.4,30.1,29.63,WNW,292,4.0,7.0,95,0.00,,,0.00,WeatherCatV1.10B1784,2013-01-29 10:45:00,
2013-01-29 04:50:00,31.3,29.8,29.63,WNW,292,3.0,4.0,94,0.00,,,0.00,WeatherCatV1.10B1784,2013-01-29 10:50:00,
2013-01-29 04:55:00,31.2,29.7,29.64,WNW,292,2.0,7.0,94,0.00,,,0.00,WeatherCatV1.10B1784,2013-01-29 10:55:00,
2013-01-29 05:00:00,31.2,29.7,29.63,WNW,292,4.0,6.0,94,0.00,,,0.00,WeatherCatV1.10B1784,2013-01-29 11:00:00,
2013-01-29 05:05:00,31.2,29.7,29.62,WNW,292,0.0,3.0,94,0.00,,,0.00,WeatherCatV1.10B1784,2013-01-29 11:05:00,
2013-01-29 05:10:00,31.2,29.7,29.63,WNW,292,2.0,6.0,94,0.00,,,0.00,WeatherCatV1.10B1784,2013-01-29 11:10:00,
2013-01-29 05:15:00,31.1,29.6,29.64,WNW,292,2.0,4.0,94,0.00,,,0.00,WeatherCatV1.10B1784,2013-01-29 11:15:00,
2013-01-29 05:20:00,31.1,29.3,29.65,WNW,292,1.0,5.0,93,0.00,,,0.00,WeatherCatV1.10B1784,2013-01-29 11:20:00,
2013-01-29 05:25:00,31.0,29.2,29.65,WNW,292,4.0,4.0,93,0.00,,,0.00,WeatherCatV1.10B1784,2013-01-29 11:25:00,
2013-01-29 05:30:00,30.9,29.1,29.65,WNW,292,1.0,5.0,93,0.00,,,0.00,WeatherCatV1.10B1784,2013-01-29 11:30:00,
2013-01-29 05:35:00,30.9,29.1,29.64,WNW,292,3.0,5.0,93,0.00,,,0.00,WeatherCatV1.10B1784,2013-01-29 11:35:00,
2013-01-29 05:40:00,30.8,29.0,29.64,WNW,292,7.0,8.0,93,0.00,,,0.00,WeatherCatV1.10B1784,2013-01-29 11:40:00,
2013-01-29 05:45:00,30.7,28.9,29.64,WNW,292,3.0,9.0,93,0.00,,,0.00,WeatherCatV1.10B1784,2013-01-29 11:45:00,
2013-01-29 05:50:00,30.6,28.8,29.65,WNW,292,6.0,7.0,93,0.00,,,0.00,WeatherCatV1.10B1784,2013-01-29 11:50:00,
2013-01-29 05:55:00,30.4,28.6,29.66,WNW,292,4.0,7.0,93,0.00,,,0.00,WeatherCatV1.10B1784,2013-01-29 11:55:00,
2013-01-29 06:00:00,30.1,28.1,29.65,WNW,292,4.0,10.0,92,0.00,,,0.00,WeatherCatV1.10B1784,2013-01-29 12:00:00,
2013-01-29 06:05:00,29.9,27.9,29.66,WNW,292,4.0,7.0,92,0.00,,,0.00,WeatherCatV1.10B1784,2013-01-29 12:05:00,
2013-01-29 06:10:00,29.6,27.6,29.66,WNW,292,6.0,7.0,92,0.00,,,0.00,WeatherCatV1.10B1784,2013-01-29 12:10:00,
2013-01-29 06:15:00,29.3,27.3,29.66,WNW,292,7.0,11.0,92,0.00,,,0.00,WeatherCatV1.10B1784,2013-01-29 12:15:00,
2013-01-29 06:20:00,29.1,27.1,29.66,WNW,292,6.0,7.0,92,0.00,,,0.00,WeatherCatV1.10B1784,2013-01-29 12:20:00,
2013-01-29 06:25:00,28.9,26.9,29.66,WNW,292,9.0,12.0,92,0.00,,,0.00,WeatherCatV1.10B1784,2013-01-29 12:25:00,
2013-01-29 06:30:00,28.8,26.8,29.66,WNW,292,4.0,9.0,92,0.00,,,0.00,WeatherCatV1.10B1784,2013-01-29 12:30:00,
2013-01-29 06:35:00,28.7,26.7,29.66,WNW,292,1.0,5.0,92,0.00,,,0.00,WeatherCatV1.10B1784,2013-01-29 12:35:00,
2013-01-29 06:40:00,28.7,26.7,29.66,WNW,292,1.0,5.0,92,0.00,,,0.00,WeatherCatV1.10B1784,2013-01-29 12:40:00,
2013-01-29 06:45:00,28.8,26.8,29.67,WNW,292,4.0,13.0,92,0.00,,,0.00,WeatherCatV1.10B1784,2013-01-29 12:45:00,
2013-01-29 06:50:00,28.9,27.1,29.68,WNW,292,1.0,6.0,93,0.00,,,0.00,WeatherCatV1.10B1784,2013-01-29 12:50:00,
2013-01-29 06:55:00,28.9,27.1,29.68,WNW,292,3.0,7.0,93,0.00,,,0.00,WeatherCatV1.10B1784,2013-01-29 12:55:00,
2013-01-29 07:00:00,29.0,27.2,29.68,WNW,292,1.0,5.0,93,0.00,,,0.00,WeatherCatV1.10B1784,2013-01-29 13:00:00,
2013-01-29 07:05:00,29.1,27.3,29.69,WNW,292,1.0,5.0,93,0.00,,,0.00,WeatherCatV1.10B1784,2013-01-29 13:05:00,
2013-01-29 07:10:00,29.2,27.4,29.69,WNW,292,1.0,4.0,93,0.00,,,0.00,WeatherCatV1.10B1784,2013-01-29 13:10:00,
2013-01-29 07:15:00,29.4,27.6,29.68,WNW,292,4.0,6.0,93,0.00,,,0.00,WeatherCatV1.10B1784,2013-01-29 13:15:00,
2013-01-29 07:20:00,29.5,27.7,29.68,WNW,292,1.0,3.0,93,0.00,,,0.00,WeatherCatV1.10B1784,2013-01-29 13:20:00,
2013-01-29 07:25:00,29.6,27.8,29.67,WNW,292,6.0,6.0,93,0.00,,,0.00,WeatherCatV1.10B1784,2013-01-29 13:25:00,
2013-01-29 07:30:00,29.7,27.9,29.67,WNW,292,6.0,6.0,93,0.00,,,0.00,WeatherCatV1.10B1784,2013-01-29 13:30:00,
2013-01-29 07:35:00,29.7,27.9,29.67,WNW,292,7.0,7.0,93,0.00,,,0.00,WeatherCatV1.10B1784,2013-01-29 13:35:00,
2013-01-29 07:40:00,29.7,27.9,29.66,WNW,292,5.0,6.0,93,0.00,,,0.00,WeatherCatV1.10B1784,2013-01-29 13:40:00,
2013-01-29 07:45:00,29.6,27.8,29.65,WNW,292,5.0,7.0,93,0.00,,,0.00,WeatherCatV1.10B1784,2013-01-29 13:45:00,
2013-01-29 07:50:00,29.6,27.8,29.66,WNW,292,3.0,6.0,93,0.00,,,0.00,WeatherCatV1.10B1784,2013-01-29 13:50:00,
2013-01-29 07:55:00,29.6,27.8,29.67,WNW,292,2.0,7.0,93,0.00,,,0.00,WeatherCatV1.10B1784,2013-01-29 13:55:00,
2013-01-29 08:00:00,29.6,27.8,29.69,WNW,292,0.0,4.0,93,0.00,,,0.00,WeatherCatV1.10B1784,2013-01-29 14:00:00,
2013-01-29 08:05:00,29.5,27.7,29.70,WNW,292,3.0,3.0,93,0.00,,,0.00,WeatherCatV1.10B1784,2013-01-29 14:05:00,
2013-01-29 08:10:00,29.4,27.6,29.69,WNW,292,2.0,6.0,93,0.00,,,0.00,WeatherCatV1.10B1784,2013-01-29 14:10:00,
2013-01-29 08:15:00,29.4,27.6,29.70,WNW,292,0.0,6.0,93,0.00,,,0.00,WeatherCatV1.10B1784,2013-01-29 14:15:00,
2013-01-29 08:20:00,29.3,27.5,29.70,WNW,292,5.0,5.0,93,0.00,,,0.00,WeatherCatV1.10B1784,2013-01-29 14:20:00,
2013-01-29 08:25:00,29.3,27.5,29.71,WNW,292,1.0,5.0,93,0.00,,,0.00,WeatherCatV1.10B1784,2013-01-29 14:25:00,
2013-01-29 08:30:00,29.4,27.6,29.71,WNW,292,7.0,7.0,93,0.00,,,0.00,WeatherCatV1.10B1784,2013-01-29 14:30:00,
2013-01-29 08:35:00,29.4,27.6,29.72,WNW,292,2.0,3.0,93,0.00,,,0.00,WeatherCatV1.10B1784,2013-01-29 14:35:00,
2013-01-29 08:40:00,29.5,27.7,29.72,WNW,292,2.0,4.0,93,0.00,,,0.00,WeatherCatV1.10B1784,2013-01-29 14:40:00,
2013-01-29 08:45:00,29.6,27.8,29.73,WNW,292,1.0,3.0,93,0.00,,,0.00,WeatherCatV1.10B1784,2013-01-29 14:45:00,
2013-01-29 08:50:00,29.6,27.8,29.72,WNW,292,6.0,6.0,93,0.00,,,0.00,WeatherCatV1.10B1784,2013-01-29 14:50:00,
2013-01-29 08:55:00,29.7,27.9,29.72,WNW,292,2.0,4.0,93,0.00,,,0.00,WeatherCatV1.10B1784,2013-01-29 14:55:00,
2013-01-29 09:00:00,29.7,27.9,29.73,WNW,292,4.0,8.0,93,0.00,,,0.00,WeatherCatV1.10B1784,2013-01-29 15:00:00,
2013-01-29 09:05:00,29.7,27.9,29.72,WNW,292,2.0,7.0,93,0.00,,,0.00,WeatherCatV1.10B1784,2013-01-29 15:05:00,
2013-01-29 09:10:00,29.8,28.0,29.71,WNW,292,5.0,8.0,93,0.00,,,0.00,WeatherCatV1.10B1784,2013-01-29 15:10:00,
2013-01-29 09:15:00,29.8,28.0,29.71,WNW,292,2.0,4.0,93,0.00,,,0.00,WeatherCatV1.10B1784,2013-01-29 15:15:00,
2013-01-29 09:20:00,29.9,28.1,29.72,WNW,292,12.0,12.0,93,0.00,,,0.00,WeatherCatV1.10B1784,2013-01-29 15:20:00,
2013-01-29 09:25:00,30.0,28.2,29.73,WNW,292,6.0,7.0,93,0.00,,,0.00,WeatherCatV1.10B1784,2013-01-29 15:25:00,
2013-01-29 09:30:00,30.1,28.3,29.73,WNW,292,4.0,5.0,93,0.00,,,0.00,WeatherCatV1.10B1784,2013-01-29 15:30:00,
2013-01-29 09:35:00,30.1,28.3,29.72,WNW,292,6.0,6.0,93,0.00,,,0.00,WeatherCatV1.10B1784,2013-01-29 15:35:00,
2013-01-29 09:40:00,30.2,28.4,29.72,WNW,292,5.0,5.0,93,0.00,,,0.00,WeatherCatV1.10B1784,2013-01-29 15:40:00,
2013-01-29 09:45:00,30.2,28.4,29.72,WNW,292,4.0,7.0,93,0.00,,,0.00,WeatherCatV1.10B1784,2013-01-29 15:45:00,
2013-01-29 09:50:00,30.3,28.8,29.73,WNW,292,4.0,4.0,94,0.00,,,0.00,WeatherCatV1.10B1784,2013-01-29 15:50:00,
2013-01-29 09:55:00,30.4,28.6,29.73,WNW,292,3.0,4.0,93,0.00,,,0.00,WeatherCatV1.10B1784,2013-01-29 15:55:00,
2013-01-29 10:00:00,30.4,28.6,29.72,WNW,292,2.0,4.0,93,0.00,,,0.00,WeatherCatV1.10B1784,2013-01-29 16:00:00,
2013-01-29 10:05:00,30.6,28.8,29.72,WNW,292,2.0,5.0,93,0.00,,,0.00,WeatherCatV1.10B1784,2013-01-29 16:05:00,
2013-01-29 10:10:00,30.8,29.0,29.72,WNW,293,2.0,3.0,93,0.00,,,0.00,WeatherCatV1.10B1784,2013-01-29 16:10:00,
2013-01-29 10:15:00,31.0,29.0,29.72,WNW,293,1.0,3.0,92,0.00,,,0.00,WeatherCatV1.10B1784,2013-01-29 16:15:00,
2013-01-29 10:20:00,31.2,29.4,29.72,WNW,293,2.0,3.0,93,0.00,,,0.00,WeatherCatV1.10B1784,2013-01-29 16:20:00,
2013-01-29 10:25:00,31.3,29.3,29.72,WNW,293,0.0,4.0,92,0.00,,,0.00,WeatherCatV1.10B1784,2013-01-29 16:25:00,
2013-01-29 10:30:00,31.5,29.4,29.72,WNW,294,1.0,3.0,92,0.00,,,0.00,WeatherCatV1.10B1784,2013-01-29 16:30:00,
2013-01-29 10:35:00,31.7,29.6,29.73,WNW,295,0.0,5.0,92,0.00,,,0.00,WeatherCatV1.10B1784,2013-01-29 16:35:00,
2013-01-29 10:40:00,32.1,30.0,29.72,NW,321,0.0,4.0,92,0.00,,,0.00,WeatherCatV1.10B1784,2013-01-29 16:40:00,
2013-01-29 10:45:00,32.3,30.0,29.72,NW,320,1.0,5.0,91,0.00,,,0.00,WeatherCatV1.10B1784,2013-01-29 16:45:00,
2013-01-29 10:50:00,32.6,30.3,29.72,NW,315,2.0,4.0,91,0.00,,,0.00,WeatherCatV1.10B1784,2013-01-29 16:50:00,
2013-01-29 10:55:00,33.0,30.4,29.73,NW,315,1.0,4.0,90,0.00,,,0.00,WeatherCatV1.10B1784,2013-01-29 16:55:00,
2013-01-29 11:00:00,33.3,30.7,29.72,NW,318,3.0,3.0,90,0.00,,,0.00,WeatherCatV1.10B1784,2013-01-29 17:00:00,
2013-01-29 11:05:00,33.3,30.4,29.72,NW,318,2.0,6.0,89,0.00,,,0.00,WeatherCatV1.10B1784,2013-01-29 17:05:00,
2013-01-29 11:10:00,33.5,30.9,29.71,WNW,297,3.0,4.0,90,0.00,,,0.00,WeatherCatV1.10B1784,2013-01-29 17:10:00,
2013-01-29 11:15:00,33.8,31.2,29.72,North,355,1.0,3.0,90,0.00,,,0.00,WeatherCatV1.10B1784,2013-01-29 17:15:00,
2013-01-29 11:20:00,34.2,31.6,29.73,NNW,331,2.0,2.0,90,0.00,,,0.00,WeatherCatV1.10B1784,2013-01-29 17:20:00,
2013-01-29 11:25:00,34.3,31.4,29.73,West,276,2.0,4.0,89,0.00,,,0.00,WeatherCatV1.10B1784,2013-01-29 17:25:00,
2013-01-29 11:30:00,34.3,31.1,29.73,NW,308,2.0,4.0,88,0.00,,,0.00,WeatherCatV1.10B1784,2013-01-29 17:30:00,
2013-01-29 11:35:00,34.2,31.3,29.73,NW,314,2.0,3.0,89,0.00,,,0.00,WeatherCatV1.10B1784,2013-01-29 17:35:00,
2013-01-29 11:40:00,34.4,31.5,29.73,NNW,331,3.0,3.0,89,0.00,,,0.00,WeatherCatV1.10B1784,2013-01-29 17:40:00,
2013-01-29 11:45:00,34.6,31.7,29.73,NW,316,3.0,5.0,89,0.00,,,0.00,WeatherCatV1.10B1784,2013-01-29 17:45:00,
2013-01-29 11:50:00,34.6,31.7,29.72,WNW,300,2.0,5.0,89,0.00,,,0.00,WeatherCatV1.10B1784,2013-01-29 17:50:00,
2013-01-29 11:55:00,34.8,31.6,29.71,WNW,296,3.0,4.0,88,0.00,,,0.00,WeatherCatV1.10B1784,2013-01-29 17:55:00,
2013-01-29 12:00:00,34.9,31.7,29.71,NW,305,4.0,8.0,88,0.00,,,0.00,WeatherCatV1.10B1784,2013-01-29 18:00:00,
2013-01-29 12:01:00,34.9,31.4,29.71,NW,320,1.0,6.0,87,0.00,,,0.00,WeatherCatV1.10B1784,2013-01-29 18:01:00,
2013-01-29 12:06:00,34.9,31.7,29.71,NNW,331,3.0,6.0,88,0.00,,,0.00,WeatherCatV1.10B1784,2013-01-29 18:06:00,
2013-01-29 12:11:00,34.9,31.4,29.71,NW,307,2.0,4.0,87,0.00,,,0.00,WeatherCatV1.10B1784,2013-01-29 18:11:00,
2013-01-29 12:16:00,34.8,31.0,29.70,NW,319,2.0,6.0,86,0.00,,,0.00,WeatherCatV1.10B1784,2013-01-29 18:16:00,
2013-01-29 12:21:00,34.8,31.0,29.70,NW,316,4.0,5.0,86,0.00,,,0.00,WeatherCatV1.10B1784,2013-01-29 18:21:00,
2013-01-29 12:26:00,35.0,31.2,29.69,WNW,285,3.0,7.0,86,0.00,,,0.00,WeatherCatV1.10B1784,2013-01-29 18:26:00,
2013-01-29 12:31:00,35.2,31.2,29.69,NW,308,2.0,4.0,85,0.00,,,0.00,WeatherCatV1.10B1784,2013-01-29 18:31:00,
2013-01-29 12:36:00,35.3,31.0,29.70,NNE,16,4.0,8.0,84,0.00,,,0.00,WeatherCatV1.10B1784,2013-01-29 18:36:00,
2013-01-29 12:41:00,35.6,31.5,29.69,North,349,3.0,4.0,85,0.00,,,0.00,WeatherCatV1.10B1784,2013-01-29 18:41:00,
2013-01-29 12:46:00,35.7,31.1,29.69,NW,313,0.0,6.0,83,0.00,,,0.00,WeatherCatV1.10B1784,2013-01-29 18:46:00,
2013-01-29 12:51:00,36.0,31.3,29.70,North,0,2.0,6.0,83,0.00,,,0.00,WeatherCatV1.10B1784,2013-01-29 18:51:00,
2013-01-29 12:56:00,36.1,31.1,29.71,NW,312,1.0,3.0,82,0.00,,,0.00,WeatherCatV1.10B1784,2013-01-29 18:56:00,
2013-01-29 13:01:00,35.9,30.3,29.71,NW,312,4.0,7.0,80,0.00,,,0.00,WeatherCatV1.10B1784,2013-01-29 19:01:00,
2013-01-29 13:06:00,35.5,30.0,29.71,NW,316,2.0,5.0,80,0.00,,,0.00,WeatherCatV1.10B1784,2013-01-29 19:06:00,
2013-01-29 13:11:00,35.6,30.0,29.70,NW,308,2.0,5.0,80,0.00,,,0.00,WeatherCatV1.10B1784,2013-01-29 19:11:00,
2013-01-29 13:16:00,35.7,29.2,29.70,North,350,2.0,4.0,77,0.00,,,0.00,WeatherCatV1.10B1784,2013-01-29 19:16:00,
2013-01-29 13:21:00,35.7,29.2,29.71,NE,37,0.0,4.0,77,0.00,,,0.00,WeatherCatV1.10B1784,2013-01-29 19:21:00,
2013-01-29 13:26:00,35.9,30.0,29.71,NNW,343,2.0,5.0,79,0.00,,,0.00,WeatherCatV1.10B1784,2013-01-29 19:26:00,
2013-01-29 13:31:00,35.9,29.4,29.70,NNW,348,4.0,5.0,77,0.00,,,0.00,WeatherCatV1.10B1784,2013-01-29 19:31:00,
2013-01-29 13:36:00,35.7,29.5,29.71,NW,312,2.0,3.0,78,0.00,,,0.00,WeatherCatV1.10B1784,2013-01-29 19:36:00,
2013-01-29 13:41:00,35.7,28.9,29.71,NW,316,1.0,4.0,76,0.00,,,0.00,WeatherCatV1.10B1784,2013-01-29 19:41:00,
2013-01-29 13:46:00,35.7,28.9,29.72,WNW,296,5.0,7.0,76,0.00,,,0.00,WeatherCatV1.10B1784,2013-01-29 19:46:00,
2013-01-29 13:51:00,35.8,28.7,29.71,NW,318,3.0,4.0,75,0.00,,,0.00,WeatherCatV1.10B1784,2013-01-29 19:51:00,
2013-01-29 13:56:00,35.8,28.7,29.71,NW,309,5.0,6.0,75,0.00,,,0.00,WeatherCatV1.10B1784,2013-01-29 19:56:00,
2013-01-29 14:01:00,35.7,28.9,29.70,NW,307,5.0,8.0,76,0.00,,,0.00,WeatherCatV1.10B1784,2013-01-29 20:01:00,
2013-01-29 14:06:00,35.4,28.9,29.70,NNW,345,3.0,6.0,77,0.00,,,0.00,WeatherCatV1.10B1784,2013-01-29 20:06:00,
2013-01-29 14:11:00,35.3,28.8,29.70,North,349,2.0,4.0,77,0.00,,,0.00,WeatherCatV1.10B1784,2013-01-29 20:11:00,
2013-01-29 14:16:00,35.2,28.7,29.70,NNW,327,4.0,9.0,77,0.00,,,0.00,WeatherCatV1.10B1784,2013-01-29 20:16:00,
2013-01-29 14:21:00,35.1,28.6,29.70,NW,320,2.0,5.0,77,0.00,,,0.00,WeatherCatV1.10B1784,2013-01-29 20:21:00,
2013-01-29 14:26:00,35.1,28.9,29.70,NW,310,4.0,8.0,78,0.00,,,0.00,WeatherCatV1.10B1784,2013-01-29 20:26:00,
2013-01-29 14:31:00,35.0,28.8,29.70,NNW,334,1.0,5.0,78,0.00,,,0.00,WeatherCatV1.10B1784,2013-01-29 20:31:00,
2013-01-29 14:36:00,35.0,28.8,29.69,WNW,295,4.0,5.0,78,0.00,,,0.00,WeatherCatV1.10B1784,2013-01-29 20:36:00,
2013-01-29 14:41:00,35.1,28.6,29.70,WNW,296,2.0,4.0,77,0.00,,,0.00,WeatherCatV1.10B1784,2013-01-29 20:41:00,
2013-01-29 14:46:00,35.3,28.8,29.70,NNW,332,2.0,6.0,77,0.00,,,0.00,WeatherCatV1.10B1784,2013-01-29 20:46:00,
2013-01-29 14:51:00,35.3,28.2,29.69,WNW,298,3.0,11.0,75,0.00,,,0.00,WeatherCatV1.10B1784,2013-01-29 20:51:00,
2013-01-29 14:56:00,35.1,27.7,29.69,NNW,332,4.0,7.0,74,0.00,,,0.00,WeatherCatV1.10B1784,2013-01-29 20:56:00,
2013-01-29 15:01:00,34.9,26.8,29.70,WNW,300,2.0,5.0,72,0.00,,,0.00,WeatherCatV1.10B1784,2013-01-29 21:01:00,
2013-01-29 15:06:00,34.8,27.0,29.70,NW,312,1.0,8.0,73,0.00,,,0.00,WeatherCatV1.10B1784,2013-01-29 21:06:00,
2013-01-29 15:11:00,34.7,27.3,29.71,NW,311,1.0,2.0,74,0.00,,,0.00,WeatherCatV1.10B1784,2013-01-29 21:11:00,
2013-01-29 15:16:00,34.9,27.8,29.71,NNW,328,2.0,3.0,75,0.00,,,0.00,WeatherCatV1.10B1784,2013-01-29 21:16:00,
2013-01-29 15:21:00,35.1,28.0,29.72,WNW,301,2.0,5.0,75,0.00,,,0.00,WeatherCatV1.10B1784,2013-01-29 21:21:00,
2013-01-29 15:26:00,35.3,28.5,29.72,NNW,346,2.0,6.0,76,0.00,,,0.00,WeatherCatV1.10B1784,2013-01-29 21:26:00,
2013-01-29 15:31:00,35.5,29.0,29.71,NNW,328,3.0,5.0,77,0.00,,,0.00,WeatherCatV1.10B1784,2013-01-29 21:31:00,
2013-01-29 15:36:00,35.3,28.8,29.71,WNW,300,0.0,6.0,77,0.00,,,0.00,WeatherCatV1.10B1784,2013-01-29 21:36:00,
2013-01-29 15:41:00,35.2,28.1,29.71,WNW,303,6.0,8.0,75,0.00,,,0.00,WeatherCatV1.10B1784,2013-01-29 21:41:00,
2013-01-29 15:46:00,34.8,27.4,29.71,WNW,287,6.0,6.0,74,0.00,,,0.00,WeatherCatV1.10B1784,2013-01-29 21:46:00,
2013-01-29 15:51:00,34.7,27.3,29.71,NW,316,2.0,7.0,74,0.00,,,0.00,WeatherCatV1.10B1784,2013-01-29 21:51:00,
2013-01-29 15:56:00,34.6,27.2,29.70,NNW,339,4.0,6.0,74,0.00,,,0.00,WeatherCatV1.10B1784,2013-01-29 21:56:00,
2013-01-29 16:01:00,34.6,27.2,29.70,NW,316,5.0,5.0,74,0.00,,,0.00,WeatherCatV1.10B1784,2013-01-29 22:01:00,
2013-01-29 16:06:00,34.8,28.0,29.70,WNW,297,0.0,2.0,76,0.00,,,0.00,WeatherCatV1.10B1784,2013-01-29 22:06:00,
2013-01-29 16:11:00,35.0,28.2,29.70,North,355,1.0,6.0,76,0.00,,,0.00,WeatherCatV1.10B1784,2013-01-29 22:11:00,
2013-01-29 16:16:00,34.8,27.7,29.70,NNW,341,3.0,5.0,75,0.00,,,0.00,WeatherCatV1.10B1784,2013-01-29 22:16:00,
2013-01-29 16:21:00,34.6,27.5,29.71,WNW,301,5.0,7.0,75,0.00,,,0.00,WeatherCatV1.10B1784,2013-01-29 22:21:00,
2013-01-29 16:26:00,34.3,27.2,29.71,WNW,301,2.0,4.0,75,0.00,,,0.00,WeatherCatV1.10B1784,2013-01-29 22:26:00,
2013-01-29 16:31:00,34.0,26.9,29.71,North,0,2.0,5.0,75,0.00,,,0.00,WeatherCatV1.10B1784,2013-01-29 22:31:00,
2013-01-29 16:36:00,33.6,26.5,29.71,NW,305,3.0,4.0,75,0.00,,,0.00,WeatherCatV1.10B1784,2013-01-29 22:36:00,
2013-01-29 16:41:00,33.4,26.3,29.71,North,10,9.0,9.0,75,0.00,,,0.00,WeatherCatV1.10B1784,2013-01-29 22:41:00,
2013-01-29 16:46:00,33.2,26.5,29.71,North,351,2.0,7.0,76,0.00,,,0.00,WeatherCatV1.10B1784,2013-01-29 22:46:00,
2013-01-29 16:52:00,33.0,26.6,29.72,North,353,1.0,2.0,77,0.00,,,0.00,WeatherCatV1.10B1784,2013-01-29 22:52:00,
2013-01-29 16:57:00,32.9,26.5,29.72,NW,311,2.0,3.0,77,0.00,,,0.00,WeatherCatV1.10B1784,2013-01-29 22:57:00,
2013-01-29 17:02:00,32.8,26.7,29.72,NW,317,0.0,3.0,78,0.00,,,0.00,WeatherCatV1.10B1784,2013-01-29 23:02:00,
2013-01-29 17:07:00,32.7,26.9,29.72,NNW,333,3.0,5.0,79,0.00,,,0.00,WeatherCatV1.10B1784,2013-01-29 23:07:00,
2013-01-29 17:12:00,32.6,26.8,29.72,NNW,332,2.0,4.0,79,0.00,,,0.00,WeatherCatV1.10B1784,2013-01-29 23:12:00,
2013-01-29 17:17:00,32.4,26.9,29.71,NW,309,0.0,6.0,80,0.00,,,0.00,WeatherCatV1.10B1784,2013-01-29 23:17:00,
2013-01-29 17:22:00,32.2,26.7,29.72,NW,306,6.0,6.0,80,0.00,,,0.00,WeatherCatV1.10B1784,2013-01-29 23:22:00,
2013-01-29 17:27:00,32.0,26.8,29.72,NW,313,1.0,6.0,81,0.00,,,0.00,WeatherCatV1.10B1784,2013-01-29 23:27:00,
2013-01-29 17:32:00,31.8,26.6,29.73,NW,311,2.0,4.0,81,0.00,,,0.00,WeatherCatV1.10B1784,2013-01-29 23:32:00,
2013-01-29 17:37:00,31.6,26.7,29.72,NNW,348,0.0,5.0,82,0.00,,,0.00,WeatherCatV1.10B1784,2013-01-29 23:37:00,
2013-01-29 17:42:00,31.5,26.7,29.73,NNE,17,1.0,4.0,82,0.00,,,0.00,WeatherCatV1.10B1784,2013-01-29 23:42:00,
2013-01-29 17:47:00,31.3,26.5,29.73,NW,318,3.0,5.0,82,0.00,,,0.00,WeatherCatV1.10B1784,2013-01-29 23:47:00,
2013-01-29 17:52:00,31.2,26.6,29.74,WNW,297,1.0,2.0,83,0.00,,,0.00,WeatherCatV1.10B1784,2013-01-29 23:52:00,
2013-01-29 17:57:00,31.0,26.5,29.74,NNE,18,5.0,6.0,83,0.00,,,0.00,WeatherCatV1.10B1784,2013-01-29 23:57:00,
2013-01-29 18:02:00,30.8,26.5,29.75,NW,324,3.0,6.0,84,0.00,,,0.00,WeatherCatV1.10B1784,2013-01-30 00:02:00,
2013-01-29 18:07:00,30.7,26.4,29.76,NNE,19,1.0,4.0,84,0.00,,,0.00,WeatherCatV1.10B1784,2013-01-30 00:07:00,
2013-01-29 18:12:00,30.6,26.4,29.75,NW,307,6.0,6.0,84,0.00,,,0.00,WeatherCatV1.10B1784,2013-01-30 00:12:00,
2013-01-29 18:17:00,30.5,26.5,29.75,WNW,298,2.0,5.0,85,0.00,,,0.00,WeatherCatV1.10B1784,2013-01-30 00:17:00,
2013-01-29 18:22:00,30.4,26.4,29.75,WNW,303,2.0,2.0,85,0.00,,,0.00,WeatherCatV1.10B1784,2013-01-30 00:22:00,
2013-01-29 18:27:00,30.2,26.2,29.75,NW,306,4.0,6.0,85,0.00,,,0.00,WeatherCatV1.10B1784,2013-01-30 00:27:00,
2013-01-29 18:32:00,30.0,26.0,29.77,WNW,282,3.0,4.0,85,0.00,,,0.00,WeatherCatV1.10B1784,2013-01-30 00:32:00,
2013-01-29 18:37:00,29.8,25.9,29.78,WNW,297,3.0,7.0,85,0.00,,,0.00,WeatherCatV1.10B1784,2013-01-30 00:37:00,
2013-01-29 18:42:00,29.7,26.0,29.77,NNE,20,0.0,2.0,86,0.00,,,0.00,WeatherCatV1.10B1784,2013-01-30 00:42:00,
2013-01-29 18:47:00,29.6,25.9,29.76,NW,320,0.0,3.0,86,0.00,,,0.00,WeatherCatV1.10B1784,2013-01-30 00:47:00,
2013-01-29 18:52:00,29.5,25.8,29.76,NNE,33,5.0,6.0,86,0.00,,,0.00,WeatherCatV1.10B1784,2013-01-30 00:52:00,
2013-01-29 18:57:00,29.2,25.0,29.77,WNW,302,2.0,6.0,84,0.00,,,0.00,WeatherCatV1.10B1784,2013-01-30 00:57:00,
2013-01-29 19:02:00,28.9,25.0,29.77,NNW,336,0.0,6.0,85,0.00,,,0.00,WeatherCatV1.10B1784,2013-01-30 01:02:00,
2013-01-29 19:07:00,28.7,24.8,29.78,NNW,333,2.0,5.0,85,0.00,,,0.00,WeatherCatV1.10B1784,2013-01-30 01:07:00,
2013-01-29 19:12:00,28.4,24.5,29.80,NW,305,9.0,9.0,85,0.00,,,0.00,WeatherCatV1.10B1784,2013-01-30 01:12:00,
2013-01-29 19:17:00,27.9,24.0,29.80,WNW,302,2.0,7.0,85,0.00,,,0.00,WeatherCatV1.10B1784,2013-01-30 01:17:00,
2013-01-29 19:22:00,27.5,23.6,29.80,NW,321,2.0,6.0,85,0.00,,,0.00,WeatherCatV1.10B1784,2013-01-30 01:22:00,
2013-01-29 19:27:00,27.1,23.5,29.80,NW,317,4.0,7.0,86,0.00,,,0.00,WeatherCatV1.10B1784,2013-01-30 01:27:00,
2013-01-29 19:32:00,26.8,23.2,29.80,NW,305,4.0,10.0,86,0.00,,,0.00,WeatherCatV1.10B1784,2013-01-30 01:32:00,
2013-01-29 19:37:00,26.4,22.8,29.80,NNW,334,4.0,5.0,86,0.00,,,0.00,WeatherCatV1.10B1784,2013-01-30 01:37:00,
2013-01-29 19:42:00,26.0,22.1,29.81,WNW,289,9.0,9.0,85,0.00,,,0.00,WeatherCatV1.10B1784,2013-01-30 01:42:00,
2013-01-29 19:47:00,25.7,22.1,29.80,North,5,4.0,8.0,86,0.00,,,0.00,WeatherCatV1.10B1784,2013-01-30 01:47:00,
2013-01-29 19:52:00,25.3,21.7,29.81,NW,317,2.0,11.0,86,0.00,,,0.00,WeatherCatV1.10B1784,2013-01-30 01:52:00,
2013-01-29 19:57:00,24.7,20.6,29.81,NW,317,5.0,9.0,84,0.00,,,0.00,WeatherCatV1.10B1784,2013-01-30 01:57:00,
2013-01-29 20:02:00,24.3,20.2,29.79,NW,317,5.0,7.0,84,0.00,,,0.00,WeatherCatV1.10B1784,2013-01-30 02:02:00,
2013-01-29 20:07:00,24.0,20.2,29.80,NW,317,3.0,10.0,85,0.00,,,0.00,WeatherCatV1.10B1784,2013-01-30 02:07:00,
2013-01-29 20:12:00,23.7,20.1,29.81,NW,317,4.0,5.0,86,0.00,,,0.00,WeatherCatV1.10B1784,2013-01-30 02:12:00,
2013-01-29 20:17:00,23.4,19.6,29.81,NW,317,6.0,9.0,85,0.00,,,0.00,WeatherCatV1.10B1784,2013-01-30 02:17:00,
2013-01-29 20:22:00,23.2,19.4,29.81,NW,317,5.0,11.0,85,0.00,,,0.00,WeatherCatV1.10B1784,2013-01-30 02:22:00,
2013-01-29 20:27:00,23.1,19.3,29.81,NW,317,2.0,6.0,85,0.00,,,0.00,WeatherCatV1.10B1784,2013-01-30 02:27:00,
2013-01-29 20:32:00,23.1,19.5,29.81,NW,317,7.0,7.0,86,0.00,,,0.00,WeatherCatV1.10B1784,2013-01-30 02:32:00,
2013-01-29 20:37:00,23.1,19.5,29.80,NW,317,5.0,12.0,86,0.00,,,0.00,WeatherCatV1.10B1784,2013-01-30 02:37:00,
2013-01-29 20:42:00,23.0,19.5,29.80,NW,317,7.0,11.0,86,0.00,,,0.00,WeatherCatV1.10B1784,2013-01-30 02:42:00,
2013-01-29 20:47:00,23.0,19.7,29.80,NW,317,4.0,7.0,87,0.00,,,0.00,WeatherCatV1.10B1784,2013-01-30 02:47:00,
2013-01-29 20:52:00,23.1,19.8,29.81,NW,317,10.0,11.0,87,0.00,,,0.00,WeatherCatV1.10B1784,2013-01-30 02:52:00,
2013-01-29 20:57:00,23.0,19.7,29.82,NW,317,3.0,6.0,87,0.00,,,0.00,WeatherCatV1.10B1784,2013-01-30 02:57:00,
2013-01-29 21:02:00,23.1,19.8,29.82,NW,317,1.0,8.0,87,0.00,,,0.00,WeatherCatV1.10B1784,2013-01-30 03:02:00,
2013-01-29 21:07:00,23.1,19.8,29.82,NW,317,6.0,7.0,87,0.00,,,0.00,WeatherCatV1.10B1784,2013-01-30 03:07:00,
2013-01-29 21:12:00,23.2,19.9,29.82,NW,317,8.0,8.0,87,0.00,,,0.00,WeatherCatV1.10B1784,2013-01-30 03:12:00,
2013-01-29 21:17:00,23.2,19.9,29.82,NW,317,6.0,10.0,87,0.00,,,0.00,WeatherCatV1.10B1784,2013-01-30 03:17:00,
2013-01-29 21:22:00,23.2,19.9,29.82,NW,317,5.0,9.0,87,0.00,,,0.00,WeatherCatV1.10B1784,2013-01-30 03:22:00,
2013-01-29 21:27:00,23.2,19.9,29.82,NW,317,3.0,12.0,87,0.00,,,0.00,WeatherCatV1.10B1784,2013-01-30 03:27:00,
2013-01-29 21:32:00,23.2,19.9,29.82,NW,317,2.0,10.0,87,0.00,,,0.00,WeatherCatV1.10B1784,2013-01-30 03:32:00,
2013-01-29 21:37:00,23.2,19.9,29.83,NW,317,4.0,8.0,87,0.00,,,0.00,WeatherCatV1.10B1784,2013-01-30 03:37:00,
2013-01-29 21:42:00,23.2,19.6,29.82,NW,317,4.0,9.0,86,0.00,,,0.00,WeatherCatV1.10B1784,2013-01-30 03:42:00,
2013-01-29 21:47:00,23.2,19.6,29.83,NW,317,2.0,10.0,86,0.00,,,0.00,WeatherCatV1.10B1784,2013-01-30 03:47:00,
2013-01-29 21:52:00,23.2,19.6,29.84,NW,317,8.0,8.0,86,0.00,,,0.00,WeatherCatV1.10B1784,2013-01-30 03:52:00,
2013-01-29 21:57:00,23.2,19.6,29.83,NW,317,1.0,10.0,86,0.00,,,0.00,WeatherCatV1.10B1784,2013-01-30 03:57:00,
2013-01-29 22:02:00,23.3,20.0,29.84,NW,317,4.0,4.0,87,0.00,,,0.00,WeatherCatV1.10B1784,2013-01-30 04:02:00,
2013-01-29 22:07:00,23.3,19.7,29.84,NW,317,5.0,8.0,86,0.00,,,0.00,WeatherCatV1.10B1784,2013-01-30 04:07:00,
2013-01-29 22:12:00,23.2,19.9,29.85,NW,317,3.0,9.0,87,0.00,,,0.00,WeatherCatV1.10B1784,2013-01-30 04:12:00,
2013-01-29 22:17:00,23.2,19.4,29.84,NW,317,3.0,12.0,85,0.00,,,0.00,WeatherCatV1.10B1784,2013-01-30 04:17:00,
2013-01-29 22:22:00,23.1,19.3,29.83,NW,317,3.0,8.0,85,0.00,,,0.00,WeatherCatV1.10B1784,2013-01-30 04:22:00,
2013-01-29 22:27:00,23.1,19.5,29.82,NW,317,4.0,9.0,86,0.00,,,0.00,WeatherCatV1.10B1784,2013-01-30 04:27:00,
2013-01-29 22:32:00,23.1,19.5,29.81,NW,317,6.0,11.0,86,0.00,,,0.00,WeatherCatV1.10B1784,2013-01-30 04:32:00,
2013-01-29 22:37:00,23.1,19.5,29.81,NW,317,2.0,11.0,86,0.00,,,0.00,WeatherCatV1.10B1784,2013-01-30 04:37:00,
2013-01-29 22:42:00,23.1,19.5,29.81,NW,317,5.0,11.0,86,0.00,,,0.00,WeatherCatV1.10B1784,2013-01-30 04:42:00,
2013-01-29 22:47:00,23.1,19.5,29.81,NW,317,5.0,9.0,86,0.00,,,0.00,WeatherCatV1.10B1784,2013-01-30 04:47:00,
2013-01-29 22:52:00,23.0,19.5,29.81,NW,317,8.0,9.0,86,0.00,,,0.00,WeatherCatV1.10B1784,2013-01-30 04:52:00,
2013-01-29 22:57:00,23.0,19.2,29.81,NW,317,5.0,7.0,85,0.00,,,0.00,WeatherCatV1.10B1784,2013-01-30 04:57:00,
2013-01-29 23:00:00,23.1,19.3,29.81,NW,317,5.0,9.0,85,0.00,,,0.00,WeatherCatV1.10B1784,2013-01-30 05:00:00,
2013-01-29 23:01:00,23.1,19.3,29.82,NW,317,4.0,10.0,85,0.00,,,0.00,WeatherCatV1.10B1784,2013-01-30 05:01:00,
2013-01-29 23:06:00,23.1,19.5,29.82,NW,317,3.0,13.0,86,0.00,,,0.00,WeatherCatV1.10B1784,2013-01-30 05:06:00,
2013-01-29 23:11:00,23.1,19.3,29.82,NW,317,6.0,12.0,85,0.00,,,0.00,WeatherCatV1.10B1784,2013-01-30 05:11:00,
2013-01-29 23:16:00,23.1,19.3,29.82,NW,317,4.0,9.0,85,0.00,,,0.00,WeatherCatV1.10B1784,2013-01-30 05:16:00,
2013-01-29 23:21:00,23.2,19.4,29.83,NW,317,6.0,13.0,85,0.00,,,0.00,WeatherCatV1.10B1784,2013-01-30 05:21:00,
2013-01-29 23:26:00,23.1,19.3,29.83,NW,317,4.0,9.0,85,0.00,,,0.00,WeatherCatV1.10B1784,2013-01-30 05:26:00,
2013-01-29 23:31:00,23.0,19.2,29.83,NW,317,5.0,13.0,85,0.00,,,0.00,WeatherCatV1.10B1784,2013-01-30 05:31:00,
2013-01-29 23:36:00,23.0,19.2,29.83,NW,317,3.0,9.0,85,0.00,,,0.00,WeatherCatV1.10B1784,2013-01-30 05:36:00,
2013-01-29 23:41:00,23.0,19.5,29.83,NW,317,14.0,14.0,86,0.00,,,0.00,WeatherCatV1.10B1784,2013-01-30 05:41:00,
2013-01-29 23:46:00,23.0,19.2,29.84,NW,317,1.0,11.0,85,0.00,,,0.00,WeatherCatV1.10B1784,2013-01-30 05:46:00,
2013-01-29 23:51:00,22.9,19.1,29.84,NW,317,2.0,10.0,85,0.00,,,0.00,WeatherCatV1.10B1784,2013-01-30 05:51:00,
2013-01-29 23:56:00,22.9,19.4,29.84,NW,317,3.0,7.0,86,0.00,,,0.00,WeatherCatV1.10B1784,2013-01-30 05:56:00,